Time;durP1;ratioP1;P1;durP2;ratioP2;P2;SDS_P1;SDS_P2;PMS_P1;PMS_P2;Temp;Humidity;BMP_temperature;BMP_pressure;BME280_temperature;BME280_humidity;BME280_pressure;Samples;Min_cycle;Max_cycle;Signal;HPM_P1;HPM_P2
2021/10/27 00:01:35;;;;;;;13.37;7.20;;;;;;;-0.16;78.87;96615.16;1764975;80;21082;-68
2021/10/27 00:04:02;;;;;;;8.80;5.83;;;;;;;-0.20;78.19;96616.75;1776106;81;21015;-68
2021/10/27 00:06:29;;;;;;;6.10;3.53;;;;;;;-0.22;77.56;96611.91;1775746;81;21085;-68
2021/10/27 00:08:56;;;;;;;4.57;3.13;;;;;;;-0.20;77.69;96618.44;1775542;80;21011;-68
2021/10/27 00:11:22;;;;;;;11.47;3.70;;;;;;;-0.19;77.52;96614.63;1768766;80;21037;-69
2021/10/27 00:13:49;;;;;;;6.13;3.20;;;;;;;-0.13;77.57;96619.16;1775774;81;21115;-68
2021/10/27 00:16:16;;;;;;;2.40;1.70;;;;;;;-0.08;77.87;96616.33;1775821;79;21070;-68
2021/10/27 00:18:42;;;;;;;4.13;2.87;;;;;;;-0.04;77.61;96611.73;1772198;80;21096;-68
2021/10/27 00:21:10;;;;;;;4.97;3.00;;;;;;;-0.15;77.11;96610.42;1777527;81;21484;-68
2021/10/27 00:23:36;;;;;;;4.20;2.97;;;;;;;-0.32;78.03;96622.75;1768983;80;21006;-68
2021/10/27 00:26:03;;;;;;;5.17;3.03;;;;;;;-0.40;77.84;96630.61;1767868;80;21024;-68
2021/10/27 00:28:30;;;;;;;5.00;3.20;;;;;;;-0.46;78.17;96626.08;1775050;80;21019;-68
2021/10/27 00:30:56;;;;;;;4.33;2.53;;;;;;;-0.51;77.91;96627.59;1772024;81;21008;-68
2021/10/27 00:33:23;;;;;;;5.20;3.20;;;;;;;-0.51;77.75;96625.00;1764337;80;21005;-68
2021/10/27 00:35:49;;;;;;;7.40;3.30;;;;;;;-0.47;78.28;96619.13;1773602;80;21126;-68
2021/10/27 00:38:16;;;;;;;3.57;3.03;;;;;;;-0.41;78.33;96621.95;1771470;79;21043;-68
2021/10/27 00:40:43;;;;;;;3.10;2.13;;;;;;;-0.33;78.21;96619.28;1764734;79;21017;-68
2021/10/27 00:43:09;;;;;;;3.17;2.67;;;;;;;-0.28;78.01;96616.45;1772659;80;21017;-68
2021/10/27 00:45:36;;;;;;;5.10;2.13;;;;;;;-0.33;77.66;96612.80;1768008;80;21053;-68
2021/10/27 00:48:02;;;;;;;5.13;3.17;;;;;;;-0.37;77.33;96614.78;1774284;80;21069;-68
2021/10/27 00:50:31;;;;;;;4.27;2.67;;;;;;;-0.45;77.75;96609.71;1769227;80;21089;-68
2021/10/27 00:52:58;;;;;;;4.43;2.47;;;;;;;-0.50;78.12;96612.53;1764086;80;21483;-68
2021/10/27 00:55:26;;;;;;;4.23;3.07;;;;;;;-0.46;78.59;96606.20;1764473;80;21069;-69
2021/10/27 00:57:55;;;;;;;10.50;6.60;;;;;;;-0.55;78.71;96603.27;1766269;80;20991;-68
2021/10/27 01:00:21;;;;;;;6.47;4.10;;;;;;;-0.55;78.72;96612.34;1769147;80;21057;-68
2021/10/27 01:02:48;;;;;;;6.83;3.77;;;;;;;-0.46;78.65;96614.41;1767307;79;21517;-68
2021/10/27 01:05:16;;;;;;;4.87;2.77;;;;;;;-0.50;78.58;96615.13;1765151;80;21017;-68
2021/10/27 01:07:43;;;;;;;7.90;3.00;;;;;;;-0.57;79.10;96616.99;1778215;80;21045;-67
2021/10/27 01:10:11;;;;;;;3.60;2.40;;;;;;;-0.62;78.55;96617.22;1766322;80;21084;-68
2021/10/27 01:12:39;;;;;;;5.17;3.00;;;;;;;-0.58;78.38;96617.41;1764233;80;21082;-68
2021/10/27 01:15:08;;;;;;;4.43;2.60;;;;;;;-0.51;78.73;96617.22;1773668;80;21141;-68
2021/10/27 01:17:35;;;;;;;5.23;3.20;;;;;;;-0.58;78.10;96626.48;1776127;81;21473;-67
2021/10/27 01:20:03;;;;;;;3.23;2.80;;;;;;;-0.60;78.30;96620.77;1777125;81;21057;-67
2021/10/27 01:22:37;;;;;;;4.47;2.83;;;;;;;-0.63;78.62;96622.82;1773021;80;21563;-67
2021/10/27 01:25:08;;;;;;;6.50;2.80;;;;;;;-0.58;78.54;96629.45;1774585;80;21501;-68
2021/10/27 01:27:45;;;;;;;4.97;2.73;;;;;;;-0.59;78.01;96622.52;1774462;80;21025;-68
2021/10/27 01:30:16;;;;;;;5.77;2.60;;;;;;;-0.66;77.79;96629.14;1765811;79;21114;-68
2021/10/27 01:32:44;;;;;;;6.77;2.63;;;;;;;-0.67;78.10;96629.56;1766882;80;21076;-68
2021/10/27 01:35:12;;;;;;;12.73;3.63;;;;;;;-0.61;78.64;96630.22;1765375;80;21136;-68
2021/10/27 01:37:40;;;;;;;4.40;2.57;;;;;;;-0.69;78.64;96623.42;1765915;80;21077;-68
2021/10/27 01:40:13;;;;;;;6.77;2.90;;;;;;;-0.66;78.77;96620.98;1777061;80;21114;-68
2021/10/27 01:42:40;;;;;;;4.33;2.80;;;;;;;-0.66;78.44;96624.87;1769519;80;21029;-68
2021/10/27 01:45:09;;;;;;;3.73;2.57;;;;;;;-0.73;79.22;96629.70;1769219;80;21521;-68
2021/10/27 01:47:43;;;;;;;3.33;2.50;;;;;;;-0.82;79.31;96625.05;1780152;81;21564;-68
2021/10/27 01:50:12;;;;;;;7.70;3.23;;;;;;;-0.79;79.16;96633.36;1778847;81;21023;-68
2021/10/27 01:52:39;;;;;;;4.33;2.93;;;;;;;-0.80;78.88;96629.89;1777331;80;21117;-67
2021/10/27 01:55:07;;;;;;;6.77;2.90;;;;;;;-0.70;79.00;96635.92;1772939;81;21472;-68
2021/10/27 01:57:33;;;;;;;5.73;3.17;;;;;;;-0.64;78.50;96634.41;1776302;81;21018;-67
2021/10/27 02:00:05;;;;;;;5.97;3.40;;;;;;;-0.76;77.94;96636.95;1769234;80;21761;-68
2021/10/27 02:02:34;;;;;;;5.87;3.45;;;;;;;-0.87;77.88;96640.39;1763809;80;20986;-67
2021/10/27 02:05:00;;;;;;;3.90;2.67;;;;;;;-0.83;78.83;96640.13;1772232;80;21486;-67
2021/10/27 02:07:29;;;;;;;5.73;3.03;;;;;;;-0.74;79.05;96643.09;1769289;81;21560;-67
2021/10/27 02:09:56;;;;;;;4.43;3.20;;;;;;;-0.63;78.89;96646.53;1770732;80;20998;-68
2021/10/27 02:12:26;;;;;;;4.80;3.10;;;;;;;-0.57;78.63;96648.09;1774041;80;21530;-67
2021/10/27 02:14:53;;;;;;;4.90;2.83;;;;;;;-0.51;78.52;96640.14;1772879;80;21485;-69
2021/10/27 02:17:19;;;;;;;4.93;3.07;;;;;;;-0.63;78.15;96641.34;1772020;80;21035;-69
2021/10/27 02:19:46;;;;;;;5.33;2.83;;;;;;;-0.78;77.65;96645.48;1768273;80;20987;-69
2021/10/27 02:22:12;;;;;;;5.23;3.20;;;;;;;-0.81;77.99;96646.23;1766922;80;21024;-69
2021/10/27 02:24:39;;;;;;;7.33;3.07;;;;;;;-0.79;78.22;96638.54;1765245;81;21001;-68
2021/10/27 02:27:06;;;;;;;8.47;3.13;;;;;;;-0.77;78.17;96642.97;1769102;80;21025;-69
2021/10/27 02:29:33;;;;;;;7.57;3.87;;;;;;;-0.76;78.36;96652.91;1765909;80;21093;-68
2021/10/27 02:32:01;;;;;;;5.17;3.50;;;;;;;-0.79;78.46;96648.48;1768149;80;21151;-69
2021/10/27 02:34:27;;;;;;;5.10;3.20;;;;;;;-0.83;78.15;96645.70;1777455;81;21046;-68
2021/10/27 02:36:54;;;;;;;4.07;2.80;;;;;;;-0.87;78.29;96652.05;1772600;80;20997;-68
2021/10/27 02:39:20;;;;;;;8.40;3.50;;;;;;;-0.92;78.02;96653.56;1768755;80;21483;-69
2021/10/27 02:41:47;;;;;;;4.93;3.47;;;;;;;-1.04;78.04;96650.86;1769443;80;21050;-69
2021/10/27 02:44:14;;;;;;;5.07;3.00;;;;;;;-0.99;78.31;96653.23;1778513;81;21518;-69
2021/10/27 02:46:40;;;;;;;4.43;2.70;;;;;;;-0.92;78.61;96657.87;1773189;80;21023;-69
2021/10/27 02:49:07;;;;;;;4.33;2.60;;;;;;;-0.85;78.33;96658.61;1773251;80;21134;-69
2021/10/27 02:51:33;;;;;;;5.17;3.13;;;;;;;-0.95;77.68;96659.04;1766595;80;21071;-69
2021/10/27 02:54:00;;;;;;;4.67;3.33;;;;;;;-1.05;77.61;96655.58;1779809;80;21046;-69
2021/10/27 02:56:26;;;;;;;5.23;3.13;;;;;;;-1.06;78.23;96658.97;1771654;80;21619;-69
2021/10/27 02:58:53;;;;;;;7.43;3.87;;;;;;;-1.03;78.29;96660.39;1779842;81;21058;-69
2021/10/27 03:01:21;;;;;;;7.60;3.40;;;;;;;-0.96;78.37;96665.02;1769141;81;21034;-69
2021/10/27 03:03:48;;;;;;;7.57;3.60;;;;;;;-0.99;78.63;96662.30;1767485;80;21010;-69
2021/10/27 03:06:15;;;;;;;6.10;3.90;;;;;;;-0.96;78.80;96660.75;1766415;80;21489;-69
2021/10/27 03:08:42;;;;;;;6.77;3.13;;;;;;;-0.96;78.68;96655.95;1776340;81;21019;-69
2021/10/27 03:11:09;;;;;;;6.30;3.10;;;;;;;-0.95;78.42;96661.21;1771179;80;21145;-69
2021/10/27 03:13:36;;;;;;;4.97;2.90;;;;;;;-0.93;78.31;96658.70;1773731;80;21034;-69
2021/10/27 03:16:04;;;;;;;5.13;3.13;;;;;;;-0.96;78.45;96665.02;1771620;81;21516;-69
2021/10/27 03:18:30;;;;;;;5.40;3.47;;;;;;;-1.07;77.84;96666.28;1775475;81;21051;-69
2021/10/27 03:20:57;;;;;;;4.63;3.10;;;;;;;-1.19;77.54;96664.91;1775876;81;21030;-69
2021/10/27 03:23:24;;;;;;;5.37;3.00;;;;;;;-1.19;78.18;96665.33;1774102;81;21007;-68
2021/10/27 03:25:51;;;;;;;3.27;2.40;;;;;;;-1.23;78.15;96668.20;1765523;80;20997;-68
2021/10/27 03:28:17;;;;;;;4.67;3.03;;;;;;;-1.36;79.05;96670.66;1776585;81;21537;-67
2021/10/27 03:30:44;;;;;;;5.47;2.90;;;;;;;-1.39;79.28;96679.56;1770203;80;21090;-69
2021/10/27 03:33:10;;;;;;;6.70;3.37;;;;;;;-1.35;78.82;96667.66;1774028;80;21013;-69
2021/10/27 03:35:37;;;;;;;4.30;3.07;;;;;;;-1.29;78.82;96670.50;1772002;80;21054;-69
2021/10/27 03:38:04;;;;;;;5.20;3.13;;;;;;;-1.24;79.51;96675.48;1773475;80;21041;-69
2021/10/27 03:40:31;;;;;;;6.17;3.27;;;;;;;-1.20;79.38;96670.05;1771779;80;20980;-69
2021/10/27 03:42:58;;;;;;;8.70;3.00;;;;;;;-1.17;79.45;96685.29;1768093;80;21027;-69
2021/10/27 03:45:24;;;;;;;4.10;2.80;;;;;;;-1.25;79.05;96687.96;1771291;80;21056;-69
2021/10/27 03:47:51;;;;;;;4.70;3.03;;;;;;;-1.28;78.79;96671.00;1767937;80;21625;-69
2021/10/27 03:50:18;;;;;;;4.30;2.90;;;;;;;-1.25;78.93;96667.66;1774218;80;21532;-69
2021/10/27 03:52:44;;;;;;;5.40;3.33;;;;;;;-1.21;79.33;96674.73;1766762;80;21077;-69
2021/10/27 03:55:12;;;;;;;6.20;2.80;;;;;;;-1.24;79.23;96676.77;1773005;81;21066;-68
2021/10/27 03:57:39;;;;;;;11.20;3.60;;;;;;;-1.33;78.64;96682.44;1778403;80;21599;-69
2021/10/27 04:00:08;;;;;;;5.73;2.83;;;;;;;-1.42;79.04;96692.37;1774284;80;21094;-69
2021/10/27 04:02:42;;;;;;;6.37;3.10;;;;;;;-1.40;79.03;96684.28;1776736;81;21002;-68
2021/10/27 04:05:10;;;;;;;4.83;2.73;;;;;;;-1.36;79.34;96678.43;1774653;81;21096;-69
2021/10/27 04:07:38;;;;;;;5.87;3.20;;;;;;;-1.28;79.30;96679.19;1773408;80;21007;-69
2021/10/27 04:10:10;;;;;;;5.67;3.03;;;;;;;-1.30;79.12;96682.98;1780140;81;21564;-69
2021/10/27 04:12:38;;;;;;;5.63;2.87;;;;;;;-1.29;79.26;96682.57;1773345;80;21082;-68
2021/10/27 04:15:08;;;;;;;7.47;3.30;;;;;;;-1.25;79.30;96668.95;1772439;80;21134;-69
2021/10/27 04:17:36;;;;;;;7.07;3.23;;;;;;;-1.23;78.84;96667.33;1778100;80;20987;-68
2021/10/27 04:20:06;;;;;;;5.03;3.27;;;;;;;-1.25;79.04;96672.84;1770972;80;21104;-69
2021/10/27 04:22:34;;;;;;;5.80;3.30;;;;;;;-1.32;78.41;96676.44;1773343;80;20994;-69
2021/10/27 04:25:01;;;;;;;5.30;3.10;;;;;;;-1.40;77.93;96681.69;1759119;81;21126;-67
2021/10/27 04:27:29;;;;;;;6.83;3.37;;;;;;;-1.35;78.59;96681.48;1770499;81;20972;-69
2021/10/27 04:29:55;;;;;;;5.77;3.03;;;;;;;-1.28;78.60;96670.13;1775103;80;21577;-68
2021/10/27 04:32:22;;;;;;;4.33;2.93;;;;;;;-1.31;78.60;96666.58;1764694;80;21049;-69
2021/10/27 04:34:48;;;;;;;6.40;3.50;;;;;;;-1.29;78.54;96668.33;1772380;80;21057;-68
2021/10/27 04:37:17;;;;;;;6.00;3.60;;;;;;;-1.35;78.86;96676.30;1769047;80;21037;-68
2021/10/27 04:39:44;;;;;;;6.30;3.53;;;;;;;-1.34;78.77;96675.47;1768640;80;21498;-69
2021/10/27 04:42:11;;;;;;;6.10;3.03;;;;;;;-1.33;78.48;96677.68;1773549;80;21215;-68
2021/10/27 04:44:37;;;;;;;6.03;2.97;;;;;;;-1.26;78.71;96681.41;1771564;80;21008;-69
2021/10/27 04:47:04;;;;;;;3.83;2.60;;;;;;;-1.33;78.48;96683.73;1778362;81;21054;-69
2021/10/27 04:49:31;;;;;;;38.53;14.67;;;;;;;-1.41;78.30;96697.14;1770521;79;21034;-69
2021/10/27 04:51:58;;;;;;;124.13;38.33;;;;;;;-1.58;78.56;96692.52;1774857;80;21477;-69
2021/10/27 04:54:25;;;;;;;86.83;30.53;;;;;;;-1.71;78.46;96697.54;1778341;81;21007;-68
2021/10/27 04:56:52;;;;;;;36.67;13.00;;;;;;;-1.75;79.19;96700.37;1774101;80;21114;-68
2021/10/27 04:59:18;;;;;;;31.77;13.17;;;;;;;-1.66;79.27;96707.69;1767692;80;21009;-68
2021/10/27 05:01:48;;;;;;;15.50;6.37;;;;;;;-1.61;79.33;96706.20;1770967;81;21015;-68
2021/10/27 05:04:16;;;;;;;5.33;3.20;;;;;;;-1.61;78.95;96707.50;1774556;80;21553;-69
2021/10/27 05:06:43;;;;;;;6.00;3.20;;;;;;;-1.66;78.52;96703.81;1776664;81;21137;-69
2021/10/27 05:09:09;;;;;;;8.17;4.63;;;;;;;-1.67;78.66;96700.72;1771892;80;21044;-69
2021/10/27 05:11:36;;;;;;;8.53;3.53;;;;;;;-1.76;78.70;96702.91;1772778;81;21027;-69
2021/10/27 05:14:03;;;;;;;12.43;4.47;;;;;;;-1.80;78.70;96705.74;1771352;80;20999;-69
2021/10/27 05:16:29;;;;;;;31.43;10.23;;;;;;;-1.77;80.11;96708.47;1765797;80;21061;-69
2021/10/27 05:18:56;;;;;;;15.67;6.37;;;;;;;-1.69;79.95;96717.00;1766351;80;20986;-68
2021/10/27 05:21:22;;;;;;;8.30;4.40;;;;;;;-1.62;79.79;96722.52;1775070;81;21011;-69
2021/10/27 05:23:48;;;;;;;5.03;3.37;;;;;;;-1.50;79.99;96729.09;1774210;79;21055;-69
2021/10/27 05:26:15;;;;;;;9.47;4.93;;;;;;;-1.46;79.58;96737.08;1769859;80;21025;-68
2021/10/27 05:28:41;;;;;;;14.00;7.93;;;;;;;-1.54;79.20;96735.44;1768118;80;21005;-68
2021/10/27 05:31:08;;;;;;;35.57;14.10;;;;;;;-1.63;78.54;96739.30;1772758;80;21027;-69
2021/10/27 05:33:34;;;;;;;21.90;8.90;;;;;;;-1.73;78.17;96740.97;1773455;79;21512;-69
2021/10/27 05:36:01;;;;;;;7.10;4.03;;;;;;;-1.76;78.56;96742.59;1771692;81;21015;-69
2021/10/27 05:38:28;;;;;;;7.53;3.57;;;;;;;-1.72;79.06;96746.20;1773502;81;21124;-68
2021/10/27 05:40:55;;;;;;;10.17;5.60;;;;;;;-1.66;79.17;96750.39;1765316;80;21033;-69
2021/10/27 05:43:23;;;;;;;9.20;4.87;;;;;;;-1.65;79.04;96756.45;1765561;80;21006;-67
2021/10/27 05:45:53;;;;;;;8.77;4.50;;;;;;;-1.51;79.34;96759.28;1774574;81;21023;-69
2021/10/27 05:48:18;;;;;;;29.00;10.87;;;;;;;-1.44;80.28;96761.30;1773909;81;21041;-70
2021/10/27 05:50:59;;;;;;;20.90;10.07;;;;;;;-1.32;80.43;96765.76;1764167;79;21036;-70
2021/10/27 05:55:58;;;;;;;7.33;4.00;;;;;;;-1.21;79.47;96758.50;1763565;80;21440;-69
2021/10/27 05:58:25;;;;;;;27.27;14.63;;;;;;;-1.23;80.25;96760.13;1764246;80;21085;-69
2021/10/27 06:00:51;;;;;;;36.87;16.43;;;;;;;-1.17;80.38;96765.57;1767257;80;21019;-69
2021/10/27 06:03:18;;;;;;;32.13;14.97;;;;;;;-1.00;80.42;96770.23;1770401;80;21037;-69
2021/10/27 06:05:45;;;;;;;37.77;16.17;;;;;;;-0.82;80.37;96767.56;1770981;80;21006;-68
2021/10/27 06:08:13;;;;;;;11.77;6.93;;;;;;;-0.64;80.09;96759.70;1764145;80;21041;-68
2021/10/27 06:10:41;;;;;;;25.23;12.60;;;;;;;-0.52;79.57;96771.02;1774440;80;21024;-68
2021/10/27 06:13:10;;;;;;;30.13;13.70;;;;;;;-0.52;79.51;96771.02;1774369;80;21082;-67
2021/10/27 06:15:36;;;;;;;33.30;21.40;;;;;;;-0.48;79.47;96771.59;1776132;81;21543;-69
2021/10/27 06:18:03;;;;;;;5.63;2.80;;;;;;;-0.45;79.53;96784.30;1773474;80;21007;-68
2021/10/27 06:20:30;;;;;;;10.17;5.93;;;;;;;-0.50;78.89;96778.04;1777172;81;20995;-68
2021/10/27 06:22:57;;;;;;;13.93;7.57;;;;;;;-0.54;79.50;96789.08;1767641;80;21009;-68
2021/10/27 06:25:25;;;;;;;26.53;13.70;;;;;;;-0.60;80.26;96788.83;1776445;81;20991;-68
2021/10/27 06:28:00;;;;;;;26.50;14.60;;;;;;;-0.54;80.60;96787.78;1768697;81;21006;-68
2021/10/27 06:30:29;;;;;;;31.13;18.43;;;;;;;-0.44;80.64;96796.85;1773885;80;21111;-69
2021/10/27 06:33:02;;;;;;;14.87;7.27;;;;;;;-0.28;80.87;96793.20;1770403;80;21053;-68
2021/10/27 06:36:03;;;;;;;8.90;4.87;;;;;;;-0.11;80.47;96793.50;1767949;80;21114;-69
2021/10/27 06:46:34;;;;;;;8.97;4.90;;;;;;;-0.07;80.60;96803.19;1767751;80;21037;-68
2021/10/27 06:48:54;;;;;;;;;;;;;;;0.02;81.10;96803.09;1776549;81;21091;-68
2021/10/27 06:51:21;;;;;;;15.23;7.50;;;;;;;0.19;81.44;96802.95;1770525;79;20093;-69
2021/10/27 06:53:48;;;;;;;13.13;6.57;;;;;;;0.39;81.58;96798.98;1774209;81;21030;-68
2021/10/27 06:56:18;;;;;;;13.33;7.97;;;;;;;0.46;80.79;96792.34;1767747;80;21053;-69
2021/10/27 07:01:20;;;;;;;17.10;10.07;;;;;;;0.70;80.62;96796.29;1770635;80;21057;-69
2021/10/27 07:17:05;;;;;;;13.83;8.67;;;;;;;1.75;79.05;96794.52;1777109;81;21516;-70
2021/10/27 07:19:34;;;;;;;24.63;10.73;;;;;;;1.93;78.93;96792.53;1776814;81;21018;-69
2021/10/27 07:22:00;;;;;;;19.80;10.80;;;;;;;2.13;78.89;96798.41;1765038;80;21014;-69
2021/10/27 07:24:27;;;;;;;19.70;11.27;;;;;;;2.27;78.36;96797.55;1764380;80;21104;-66
2021/10/27 07:26:58;;;;;;;16.03;9.53;;;;;;;2.28;78.06;96803.24;1768643;80;21461;-67
2021/10/27 07:29:22;;;;;;;19.43;11.30;;;;;;;2.29;77.98;96797.19;1776257;81;21595;-68
2021/10/27 07:31:50;;;;;;;16.50;9.30;;;;;;;2.33;77.84;96796.04;1772887;81;21515;-67
2021/10/27 07:34:18;;;;;;;18.33;10.47;;;;;;;2.38;77.95;96795.77;1770025;80;21034;-67
2021/10/27 07:42:17;;;;;;;30.77;17.43;;;;;;;2.81;77.99;96800.16;1764222;80;21001;-68
2021/10/27 07:44:45;;;;;;;19.67;11.60;;;;;;;3.00;78.05;96790.75;1776014;81;21010;-69
2021/10/27 07:47:13;;;;;;;21.30;10.93;;;;;;;3.23;78.35;96781.42;1770207;80;21050;-67
2021/10/27 07:49:40;;;;;;;19.77;10.10;;;;;;;3.36;77.77;96784.83;1773274;80;20995;-67
2021/10/27 07:52:07;;;;;;;22.47;12.43;;;;;;;3.40;77.13;96785.39;1772883;80;21049;-67
2021/10/27 07:54:34;;;;;;;22.73;12.73;;;;;;;3.67;77.58;96781.77;1765249;80;20981;-67
2021/10/27 07:57:02;;;;;;;19.73;10.03;;;;;;;3.94;76.88;96780.74;1768641;80;21062;-67
2021/10/27 07:59:30;;;;;;;20.43;10.87;;;;;;;4.16;76.33;96783.06;1774205;80;21021;-67
2021/10/27 08:02:05;;;;;;;17.37;9.07;;;;;;;4.32;76.12;96784.33;1773908;80;21018;-67
2021/10/27 08:04:39;;;;;;;18.73;10.97;;;;;;;4.42;74.76;96779.78;1771788;81;21522;-67
2021/10/27 08:07:05;;;;;;;;;;;;;;;4.61;72.90;96772.36;1775411;80;21009;-67
2021/10/27 08:09:35;;;;;;;17.37;11.20;;;;;;;4.84;74.10;96777.72;1764296;80;20143;-67
2021/10/27 08:12:02;;;;;;;15.73;9.47;;;;;;;5.08;75.02;96766.02;1774729;80;21441;-67
2021/10/27 08:14:28;;;;;;;17.83;10.43;;;;;;;5.45;74.44;96762.88;1764003;80;21055;-67
2021/10/27 08:16:55;;;;;;;24.00;11.87;;;;;;;5.78;73.31;96772.68;1763997;80;21025;-66
2021/10/27 08:19:22;;;;;;;19.13;11.80;;;;;;;6.09;73.52;96766.72;1764049;81;21005;-66
2021/10/27 08:21:48;;;;;;;18.70;10.17;;;;;;;6.26;70.84;96763.97;1773123;81;21578;-66
2021/10/27 08:24:21;;;;;;;25.73;11.60;;;;;;;6.45;71.10;96761.23;1767565;80;21019;-66
2021/10/27 08:26:51;;;;;;;17.57;10.27;;;;;;;6.51;70.53;96760.44;1772135;80;20997;-67
2021/10/27 08:29:13;;;;;;;20.23;11.47;;;;;;;6.68;70.38;96755.47;1774342;80;21062;-66
2021/10/27 08:31:47;;;;;;;17.53;10.20;;;;;;;6.88;71.06;96761.02;1772589;81;21079;-67
2021/10/27 08:34:17;;;;;;;18.17;10.57;;;;;;;7.19;70.00;96758.37;1764242;80;21090;-67
2021/10/27 08:36:42;;;;;;;14.80;9.67;;;;;;;7.47;69.95;96745.59;1764711;80;20982;-67
2021/10/27 08:39:10;;;;;;;22.23;11.80;;;;;;;7.71;68.45;96750.22;1774442;80;21102;-67
2021/10/27 08:41:40;;;;;;;13.60;9.03;;;;;;;7.95;67.94;96744.36;1775503;81;21098;-67
2021/10/27 08:44:09;;;;;;;17.33;8.23;;;;;;;8.18;67.90;96749.84;1765150;80;21016;-67
2021/10/27 08:46:36;;;;;;;9.27;6.77;;;;;;;8.41;66.55;96747.44;1768175;80;21017;-67
2021/10/27 08:49:06;;;;;;;12.27;7.63;;;;;;;8.52;62.04;96743.16;1764240;80;21037;-67
2021/10/27 08:51:35;;;;;;;13.97;8.87;;;;;;;8.67;62.30;96741.09;1765326;81;21014;-67
2021/10/27 08:54:04;;;;;;;13.63;8.60;;;;;;;8.90;60.34;96744.31;1765543;80;20969;-67
2021/10/27 08:56:30;;;;;;;9.63;6.17;;;;;;;9.13;58.48;96741.81;1773694;80;21084;-67
2021/10/27 08:59:09;;;;;;;13.53;6.40;;;;;;;9.30;56.63;96738.83;1770663;80;21015;-67
2021/10/27 09:06:46;;;;;;;8.80;4.93;;;;;;;10.01;50.78;96745.66;1765812;80;21059;-66
2021/10/27 09:15:52;;;;;;;6.77;4.53;;;;;;;10.48;50.12;96744.43;1761113;80;21158;-66
2021/10/27 10:04:08;;;;;;;7.23;5.20;;;;;;;12.77;41.05;96727.15;1772520;80;21062;-68
2021/10/27 10:06:37;;;;;;;6.90;3.67;;;;;;;13.05;38.10;96716.70;1767099;81;21013;-68
2021/10/27 10:09:06;;;;;;;6.70;4.00;;;;;;;13.45;40.43;96712.33;1768531;80;21016;-67
2021/10/27 10:11:33;;;;;;;4.83;4.00;;;;;;;13.97;41.36;96713.86;1779507;81;21141;-68
2021/10/27 10:14:06;;;;;;;6.15;4.15;;;;;;;14.41;37.99;96703.47;1775623;81;21070;-68
2021/10/27 10:16:45;;;;;;;9.48;4.03;;;;;;;14.89;37.48;96699.16;1769471;80;21034;-67
2021/10/27 10:19:16;;;;;;;7.90;4.17;;;;;;;15.15;34.37;96697.80;1774650;81;21035;-67
2021/10/27 10:21:47;;;;;;;7.80;4.17;;;;;;;15.48;36.26;96698.05;1769217;80;21011;-66
2021/10/27 10:24:26;;;;;;;7.70;4.42;;;;;;;15.85;36.19;96693.30;1769206;80;21065;-67
2021/10/27 10:27:04;;;;;;;6.83;4.53;;;;;;;16.62;36.23;96680.41;1775663;81;21020;-67
2021/10/27 10:29:47;;;;;;;6.25;4.28;;;;;;;16.62;36.23;96680.41;1775978;81;21585;-66
2021/10/27 10:32:28;;;;;;;5.87;4.17;;;;;;;16.92;32.15;96673.45;1772488;81;21021;-67
2021/10/27 10:35:04;;;;;;;8.38;4.47;;;;;;;17.11;29.93;96682.28;1764788;79;21009;-66
2021/10/27 10:38:20;;;;;;;5.65;4.08;;;;;;;17.28;29.62;96672.02;1775451;80;20968;-66
2021/10/27 10:40:42;;;;;;;5.08;3.52;;;;;;;17.53;31.87;96673.08;1762157;81;21042;-67
2021/10/27 10:43:39;;;;;;;9.23;4.15;;;;;;;17.74;29.53;96669.39;1775365;80;21488;-68
2021/10/27 10:55:37;;;;;;;4.25;3.77;;;;;;;17.78;29.38;96663.48;1767417;81;21075;-67
2021/10/27 11:02:53;;;;;;;8.03;3.60;;;;;;;19.08;25.69;96649.09;1766868;81;20978;-67
2021/10/27 11:25:20;;;;;;;8.63;4.12;;;;;;;20.66;24.66;96633.66;1772882;80;21019;-67
2021/10/27 11:45:09;;;;;;;4.83;3.72;;;;;;;21.89;23.54;96621.05;1774986;81;21525;-68
2021/10/27 11:47:42;;;;;;;7.10;3.67;;;;;;;22.33;23.72;96613.19;1771557;80;21450;-69
2021/10/27 11:50:14;;;;;;;6.42;5.10;;;;;;;22.47;22.46;96612.02;1768934;80;21013;-68
2021/10/27 11:52:43;;;;;;;5.30;4.08;;;;;;;22.21;21.99;96615.52;1772948;80;21035;-68
2021/10/27 11:55:13;;;;;;;46.02;25.65;;;;;;;22.19;22.08;96606.64;1763113;80;21096;-69
2021/10/27 11:57:43;;;;;;;27.35;13.85;;;;;;;22.48;21.54;96616.47;1777027;80;20995;-69
2021/10/27 12:00:26;;;;;;;10.08;6.90;;;;;;;22.77;21.64;96614.98;1765333;80;21085;-69
2021/10/27 12:03:07;;;;;;;12.40;6.75;;;;;;;22.68;23.20;96606.92;1761475;80;21053;-69
2021/10/27 12:05:44;;;;;;;9.45;5.20;;;;;;;22.93;21.96;96605.67;1769111;80;21272;-67
2021/10/27 12:08:31;;;;;;;12.85;5.22;;;;;;;22.87;21.30;96605.97;1770959;81;20989;-67
2021/10/27 12:13:47;;;;;;;26.73;15.50;;;;;;;23.59;21.57;96605.39;1768402;80;21549;-67
2021/10/27 12:19:31;;;;;;;9.48;6.00;;;;;;;23.57;20.67;96608.63;1770549;80;21033;-68
2021/10/27 12:22:09;;;;;;;21.75;15.13;;;;;;;22.89;22.50;96606.28;1767595;80;21501;-67
2021/10/27 12:24:40;;;;;;;40.33;24.07;;;;;;;23.16;22.02;96602.27;1779116;81;21022;-69
2021/10/27 12:27:22;;;;;;;24.82;15.50;;;;;;;23.52;22.32;96600.31;1767415;80;21100;-68
2021/10/27 12:29:55;;;;;;;8.83;6.28;;;;;;;23.71;20.86;96595.25;1767650;80;21070;-67
2021/10/27 12:32:24;;;;;;;9.15;6.67;;;;;;;23.40;20.52;96597.41;1773548;80;21014;-68
2021/10/27 12:34:58;;;;;;;20.82;10.70;;;;;;;23.29;21.36;96596.16;1773364;80;21013;-68
2021/10/27 12:37:40;;;;;;;20.75;11.80;;;;;;;23.14;20.98;96594.28;1773905;80;21082;-68
2021/10/27 12:40:35;;;;;;;38.45;24.12;;;;;;;23.29;21.28;96596.16;1768433;80;21119;-68
2021/10/27 12:43:10;;;;;;;15.10;8.18;;;;;;;23.36;20.86;96594.02;1762772;80;21088;-68
2021/10/27 12:45:51;;;;;;;12.28;6.53;;;;;;;23.30;20.59;96591.16;1779513;80;21544;-68
2021/10/27 12:48:26;;;;;;;10.32;8.03;;;;;;;23.31;21.39;96588.88;1770670;80;21448;-68
2021/10/27 12:51:08;;;;;;;14.07;7.55;;;;;;;23.42;21.07;96590.12;1763371;80;20994;-67
2021/10/27 12:53:49;;;;;;;14.55;8.40;;;;;;;23.62;21.67;96593.09;1768324;80;20978;-68
2021/10/27 12:56:22;;;;;;;14.25;9.40;;;;;;;23.55;21.42;96593.88;1771838;80;21007;-67
2021/10/27 12:59:02;;;;;;;8.70;6.25;;;;;;;23.39;21.55;96583.08;1771523;80;21018;-68
2021/10/27 13:01:41;;;;;;;10.28;7.05;;;;;;;23.25;21.14;96587.84;1775481;80;21016;-69
2021/10/27 13:07:02;;;;;;;11.18;6.90;;;;;;;23.39;21.31;96582.22;1772160;80;21015;-68
2021/10/27 13:09:52;;;;;;;18.25;12.40;;;;;;;23.47;21.19;96579.97;1737686;81;21540;-69
2021/10/27 13:14:52;;;;;;;13.43;7.25;;;;;;;23.64;21.52;96578.58;1769059;80;21534;-68
2021/10/27 13:17:36;;;;;;;11.73;8.13;;;;;;;23.62;21.25;96575.09;1770934;81;21027;-68
2021/10/27 13:22:55;;;;;;;12.28;8.00;;;;;;;23.66;20.69;96573.09;1771702;80;21544;-67
2021/10/27 13:30:46;;;;;;;7.47;6.25;;;;;;;23.08;23.05;96582.47;1769284;80;21564;-68
2021/10/27 13:33:08;;;;;;;9.40;5.90;;;;;;;23.01;23.37;96582.43;1777482;80;20988;-68
2021/10/27 13:35:34;;;;;;;9.83;5.47;;;;;;;22.80;24.86;96578.97;1764015;80;21021;-68
2021/10/27 13:38:03;;;;;;;9.48;5.60;;;;;;;22.39;26.26;96585.98;1771706;80;21387;-68
2021/10/27 13:40:32;;;;;;;13.90;7.72;;;;;;;21.77;26.73;96582.66;1764576;80;21049;-68
2021/10/27 13:43:08;;;;;;;8.80;5.47;;;;;;;21.13;26.89;96589.16;1764552;80;21124;-69
2021/10/27 13:48:12;;;;;;;7.50;5.90;;;;;;;19.60;29.39;96594.49;1774804;80;21593;-69
2021/10/27 13:59:06;;;;;;;8.80;5.45;;;;;;;15.56;36.62;96613.63;1780005;80;21022;-67
2021/10/27 14:06:47;;;;;;;10.15;4.90;;;;;;;14.07;38.77;96616.42;1776918;81;21055;-69
2021/10/27 14:09:20;;;;;;;11.25;5.55;;;;;;;13.43;43.72;96623.55;1778291;80;21054;-67
2021/10/27 14:14:41;;;;;;;9.23;4.33;;;;;;;12.54;45.47;96627.17;1766591;80;21587;-68
2021/10/27 14:22:55;;;;;;;10.05;5.47;;;;;;;11.46;47.39;96631.94;1768057;80;21542;-69
2021/10/27 14:47:23;;;;;;;12.37;7.80;;;;;;;9.61;51.72;96655.95;1771833;80;21074;-67
2021/10/27 15:22:21;;;;;;;14.13;5.77;;;;;;;6.83;62.02;96693.14;1771960;80;21496;-68
2021/10/27 15:30:01;;;;;;;14.20;7.73;;;;;;;6.57;61.40;96700.21;1738263;81;21030;-67
2021/10/27 15:32:23;;;;;;;11.53;5.83;;;;;;;6.58;61.32;96698.50;1761592;80;21476;-68
2021/10/27 15:34:57;;;;;;;9.37;5.83;;;;;;;6.46;62.40;96700.06;1771437;80;21692;-68
2021/10/27 15:43:01;;;;;;;9.73;6.30;;;;;;;6.01;63.10;96700.21;1704764;81;21047;-69
2021/10/27 15:53:08;;;;;;;12.70;6.30;;;;;;;5.58;63.72;96720.36;1772751;80;20974;-69
2021/10/27 15:55:36;;;;;;;13.47;6.10;;;;;;;5.59;62.78;96724.73;1770492;80;21032;-68
2021/10/27 15:58:04;;;;;;;10.97;6.30;;;;;;;5.47;64.08;96721.48;1769855;80;21124;-67
2021/10/27 16:00:31;;;;;;;9.37;6.43;;;;;;;5.31;66.36;96722.02;1774230;80;21007;-67